sensor_id;sensor_type;location;lat;lon;timestamp;P1;durP1;ratioP1;P2;durP2;ratioP2
3523;SDS011;1776;53.330;11.498;2024-03-08T00:01:59;22.53;;;12.00;;
3523;SDS011;1776;53.330;11.498;2024-03-08T00:04:24;22.07;;;12.30;;
3523;SDS011;1776;53.330;11.498;2024-03-08T00:06:50;18.77;;;12.13;;
3523;SDS011;1776;53.330;11.498;2024-03-08T00:09:15;20.33;;;10.70;;
3523;SDS011;1776;53.330;11.498;2024-03-08T00:11:41;21.00;;;10.77;;
3523;SDS011;1776;53.330;11.498;2024-03-08T00:14:06;16.50;;;10.40;;
3523;SDS011;1776;53.330;11.498;2024-03-08T00:16:32;19.00;;;10.40;;
3523;SDS011;1776;53.330;11.498;2024-03-08T00:18:58;23.13;;;10.13;;
3523;SDS011;1776;53.330;11.498;2024-03-08T00:21:24;16.20;;;10.30;;
3523;SDS011;1776;53.330;11.498;2024-03-08T00:23:49;16.30;;;10.43;;
3523;SDS011;1776;53.330;11.498;2024-03-08T00:26:14;19.00;;;11.43;;
3523;SDS011;1776;53.330;11.498;2024-03-08T00:28:40;22.03;;;11.70;;
3523;SDS011;1776;53.330;11.498;2024-03-08T00:31:05;22.40;;;11.40;;
3523;SDS011;1776;53.330;11.498;2024-03-08T00:33:31;21.00;;;10.97;;
3523;SDS011;1776;53.330;11.498;2024-03-08T00:35:57;22.20;;;11.03;;
3523;SDS011;1776;53.330;11.498;2024-03-08T00:38:22;18.83;;;10.10;;
3523;SDS011;1776;53.330;11.498;2024-03-08T00:40:47;19.60;;;10.30;;
3523;SDS011;1776;53.330;11.498;2024-03-08T00:43:13;19.00;;;11.67;;
3523;SDS011;1776;53.330;11.498;2024-03-08T00:45:38;19.90;;;11.17;;
3523;SDS011;1776;53.330;11.498;2024-03-08T00:48:03;16.50;;;11.37;;
3523;SDS011;1776;53.330;11.498;2024-03-08T00:50:30;17.80;;;11.17;;
3523;SDS011;1776;53.330;11.498;2024-03-08T00:52:55;21.03;;;11.30;;
3523;SDS011;1776;53.330;11.498;2024-03-08T00:55:21;22.80;;;10.70;;
3523;SDS011;1776;53.330;11.498;2024-03-08T00:57:46;21.60;;;10.83;;
3523;SDS011;1776;53.330;11.498;2024-03-08T01:00:11;23.30;;;11.40;;
3523;SDS011;1776;53.330;11.498;2024-03-08T01:02:38;17.00;;;10.00;;
3523;SDS011;1776;53.330;11.498;2024-03-08T01:05:04;19.77;;;12.77;;
3523;SDS011;1776;53.330;11.498;2024-03-08T01:07:32;21.10;;;10.60;;
3523;SDS011;1776;53.330;11.498;2024-03-08T01:09:58;18.47;;;11.20;;
3523;SDS011;1776;53.330;11.498;2024-03-08T01:12:23;18.53;;;11.43;;
3523;SDS011;1776;53.330;11.498;2024-03-08T01:14:48;19.67;;;10.10;;
3523;SDS011;1776;53.330;11.498;2024-03-08T01:17:13;19.03;;;11.00;;
3523;SDS011;1776;53.330;11.498;2024-03-08T01:19:39;15.90;;;11.17;;
3523;SDS011;1776;53.330;11.498;2024-03-08T01:22:04;18.60;;;10.67;;
3523;SDS011;1776;53.330;11.498;2024-03-08T01:24:29;19.00;;;11.30;;
3523;SDS011;1776;53.330;11.498;2024-03-08T01:26:54;20.27;;;11.03;;
3523;SDS011;1776;53.330;11.498;2024-03-08T01:29:20;19.60;;;11.40;;
3523;SDS011;1776;53.330;11.498;2024-03-08T01:31:45;18.13;;;11.23;;
3523;SDS011;1776;53.330;11.498;2024-03-08T01:34:10;22.23;;;11.30;;
3523;SDS011;1776;53.330;11.498;2024-03-08T01:36:35;22.80;;;11.70;;
3523;SDS011;1776;53.330;11.498;2024-03-08T01:39:02;21.63;;;10.90;;
3523;SDS011;1776;53.330;11.498;2024-03-08T01:41:32;20.37;;;12.00;;
3523;SDS011;1776;53.330;11.498;2024-03-08T01:43:58;21.80;;;11.63;;
3523;SDS011;1776;53.330;11.498;2024-03-08T01:46:24;22.97;;;12.13;;
3523;SDS011;1776;53.330;11.498;2024-03-08T01:48:49;16.33;;;10.60;;
3523;SDS011;1776;53.330;11.498;2024-03-08T01:51:15;21.17;;;11.40;;
3523;SDS011;1776;53.330;11.498;2024-03-08T01:53:42;19.93;;;11.00;;
3523;SDS011;1776;53.330;11.498;2024-03-08T01:56:10;23.40;;;11.60;;
3523;SDS011;1776;53.330;11.498;2024-03-08T01:58:37;18.43;;;10.47;;
3523;SDS011;1776;53.330;11.498;2024-03-08T02:01:03;20.93;;;12.07;;
3523;SDS011;1776;53.330;11.498;2024-03-08T02:03:30;22.47;;;11.20;;
3523;SDS011;1776;53.330;11.498;2024-03-08T02:05:56;21.97;;;10.40;;
3523;SDS011;1776;53.330;11.498;2024-03-08T02:08:23;18.87;;;11.27;;
3523;SDS011;1776;53.330;11.498;2024-03-08T02:10:49;21.17;;;12.57;;
3523;SDS011;1776;53.330;11.498;2024-03-08T02:13:15;21.70;;;11.97;;
3523;SDS011;1776;53.330;11.498;2024-03-08T02:18:19;23.30;;;10.87;;
3523;SDS011;1776;53.330;11.498;2024-03-08T02:20:46;18.10;;;10.83;;
3523;SDS011;1776;53.330;11.498;2024-03-08T02:23:16;21.73;;;11.17;;
3523;SDS011;1776;53.330;11.498;2024-03-08T02:25:41;21.93;;;10.80;;
3523;SDS011;1776;53.330;11.498;2024-03-08T02:28:08;20.23;;;10.70;;
3523;SDS011;1776;53.330;11.498;2024-03-08T02:30:35;20.13;;;11.50;;
3523;SDS011;1776;53.330;11.498;2024-03-08T02:33:00;19.10;;;11.10;;
3523;SDS011;1776;53.330;11.498;2024-03-08T02:35:26;16.70;;;10.27;;
3523;SDS011;1776;53.330;11.498;2024-03-08T02:37:51;19.40;;;11.57;;
3523;SDS011;1776;53.330;11.498;2024-03-08T02:40:16;15.77;;;9.90;;
3523;SDS011;1776;53.330;11.498;2024-03-08T02:42:41;23.73;;;10.60;;
3523;SDS011;1776;53.330;11.498;2024-03-08T02:45:08;17.43;;;10.10;;
3523;SDS011;1776;53.330;11.498;2024-03-08T02:47:34;21.17;;;11.53;;
3523;SDS011;1776;53.330;11.498;2024-03-08T02:50:00;21.47;;;10.67;;
3523;SDS011;1776;53.330;11.498;2024-03-08T02:52:26;19.10;;;11.23;;
3523;SDS011;1776;53.330;11.498;2024-03-08T02:54:52;20.63;;;11.17;;
3523;SDS011;1776;53.330;11.498;2024-03-08T02:57:17;22.30;;;11.93;;
3523;SDS011;1776;53.330;11.498;2024-03-08T02:59:43;19.73;;;9.97;;
3523;SDS011;1776;53.330;11.498;2024-03-08T03:02:08;24.90;;;10.97;;
3523;SDS011;1776;53.330;11.498;2024-03-08T03:04:35;21.50;;;11.40;;
3523;SDS011;1776;53.330;11.498;2024-03-08T03:07:00;23.30;;;11.17;;
3523;SDS011;1776;53.330;11.498;2024-03-08T03:09:26;23.67;;;11.57;;
3523;SDS011;1776;53.330;11.498;2024-03-08T03:11:53;18.70;;;10.70;;
3523;SDS011;1776;53.330;11.498;2024-03-08T03:14:19;22.60;;;10.27;;
3523;SDS011;1776;53.330;11.498;2024-03-08T03:16:46;24.33;;;10.27;;
3523;SDS011;1776;53.330;11.498;2024-03-08T03:19:11;20.33;;;10.60;;
3523;SDS011;1776;53.330;11.498;2024-03-08T03:21:36;21.87;;;12.03;;
3523;SDS011;1776;53.330;11.498;2024-03-08T03:24:03;17.53;;;9.87;;
3523;SDS011;1776;53.330;11.498;2024-03-08T03:26:29;15.43;;;9.63;;
3523;SDS011;1776;53.330;11.498;2024-03-08T03:28:56;20.27;;;11.00;;
3523;SDS011;1776;53.330;11.498;2024-03-08T03:31:22;23.03;;;11.23;;
3523;SDS011;1776;53.330;11.498;2024-03-08T03:33:48;24.47;;;11.50;;
3523;SDS011;1776;53.330;11.498;2024-03-08T03:36:16;16.70;;;9.60;;
3523;SDS011;1776;53.330;11.498;2024-03-08T03:38:43;17.53;;;9.60;;
3523;SDS011;1776;53.330;11.498;2024-03-08T03:41:08;21.63;;;11.30;;
3523;SDS011;1776;53.330;11.498;2024-03-08T03:43:37;19.60;;;10.40;;
3523;SDS011;1776;53.330;11.498;2024-03-08T03:46:07;18.50;;;9.70;;
3523;SDS011;1776;53.330;11.498;2024-03-08T03:48:32;25.80;;;11.23;;
3523;SDS011;1776;53.330;11.498;2024-03-08T03:50:58;21.33;;;11.87;;
3523;SDS011;1776;53.330;11.498;2024-03-08T03:53:23;22.30;;;11.10;;
3523;SDS011;1776;53.330;11.498;2024-03-08T03:55:50;21.43;;;11.73;;
3523;SDS011;1776;53.330;11.498;2024-03-08T03:58:16;19.70;;;10.13;;
3523;SDS011;1776;53.330;11.498;2024-03-08T04:00:41;20.77;;;10.90;;
3523;SDS011;1776;53.330;11.498;2024-03-08T04:03:08;20.93;;;11.07;;
3523;SDS011;1776;53.330;11.498;2024-03-08T04:05:33;20.13;;;10.73;;
3523;SDS011;1776;53.330;11.498;2024-03-08T04:07:59;22.90;;;11.20;;
3523;SDS011;1776;53.330;11.498;2024-03-08T04:10:24;19.10;;;10.13;;
3523;SDS011;1776;53.330;11.498;2024-03-08T04:12:50;18.33;;;9.10;;
3523;SDS011;1776;53.330;11.498;2024-03-08T04:15:15;18.83;;;11.17;;
3523;SDS011;1776;53.330;11.498;2024-03-08T04:17:40;23.13;;;11.60;;
3523;SDS011;1776;53.330;11.498;2024-03-08T04:20:06;21.30;;;12.10;;
3523;SDS011;1776;53.330;11.498;2024-03-08T04:22:39;21.20;;;11.90;;
3523;SDS011;1776;53.330;11.498;2024-03-08T04:25:05;28.33;;;13.00;;
3523;SDS011;1776;53.330;11.498;2024-03-08T04:27:31;20.33;;;11.53;;
3523;SDS011;1776;53.330;11.498;2024-03-08T04:29:57;26.43;;;11.87;;
3523;SDS011;1776;53.330;11.498;2024-03-08T04:32:23;24.30;;;12.77;;
3523;SDS011;1776;53.330;11.498;2024-03-08T04:34:48;26.27;;;11.67;;
3523;SDS011;1776;53.330;11.498;2024-03-08T04:37:14;18.60;;;10.13;;
3523;SDS011;1776;53.330;11.498;2024-03-08T04:39:39;19.83;;;11.33;;
3523;SDS011;1776;53.330;11.498;2024-03-08T04:42:05;21.67;;;11.67;;
3523;SDS011;1776;53.330;11.498;2024-03-08T04:44:34;21.77;;;10.90;;
3523;SDS011;1776;53.330;11.498;2024-03-08T04:47:01;18.80;;;10.50;;
3523;SDS011;1776;53.330;11.498;2024-03-08T04:49:26;24.53;;;13.40;;
3523;SDS011;1776;53.330;11.498;2024-03-08T04:51:53;26.10;;;13.33;;
3523;SDS011;1776;53.330;11.498;2024-03-08T04:54:18;22.07;;;11.37;;
3523;SDS011;1776;53.330;11.498;2024-03-08T04:56:43;21.10;;;11.07;;
3523;SDS011;1776;53.330;11.498;2024-03-08T04:59:09;21.90;;;11.30;;
3523;SDS011;1776;53.330;11.498;2024-03-08T05:01:34;26.93;;;14.57;;
3523;SDS011;1776;53.330;11.498;2024-03-08T05:04:03;23.70;;;12.33;;
3523;SDS011;1776;53.330;11.498;2024-03-08T05:06:28;23.00;;;13.30;;
3523;SDS011;1776;53.330;11.498;2024-03-08T05:08:55;24.53;;;12.40;;
3523;SDS011;1776;53.330;11.498;2024-03-08T05:11:20;20.30;;;11.10;;
3523;SDS011;1776;53.330;11.498;2024-03-08T05:13:45;24.63;;;12.10;;
3523;SDS011;1776;53.330;11.498;2024-03-08T05:16:11;18.37;;;11.33;;
3523;SDS011;1776;53.330;11.498;2024-03-08T05:18:36;21.27;;;11.70;;
3523;SDS011;1776;53.330;11.498;2024-03-08T05:21:02;23.90;;;11.97;;
3523;SDS011;1776;53.330;11.498;2024-03-08T05:23:29;22.93;;;10.57;;
3523;SDS011;1776;53.330;11.498;2024-03-08T05:25:55;27.23;;;13.03;;
3523;SDS011;1776;53.330;11.498;2024-03-08T05:28:20;26.30;;;11.47;;
3523;SDS011;1776;53.330;11.498;2024-03-08T05:30:46;23.83;;;12.57;;
3523;SDS011;1776;53.330;11.498;2024-03-08T05:33:11;20.87;;;11.00;;
3523;SDS011;1776;53.330;11.498;2024-03-08T05:35:39;21.93;;;11.63;;
3523;SDS011;1776;53.330;11.498;2024-03-08T05:38:05;18.17;;;11.20;;
3523;SDS011;1776;53.330;11.498;2024-03-08T05:40:30;22.77;;;11.87;;
3523;SDS011;1776;53.330;11.498;2024-03-08T05:42:57;22.17;;;11.17;;
3523;SDS011;1776;53.330;11.498;2024-03-08T05:45:23;26.70;;;12.80;;
3523;SDS011;1776;53.330;11.498;2024-03-08T05:47:50;16.13;;;10.10;;
3523;SDS011;1776;53.330;11.498;2024-03-08T05:50:16;25.10;;;12.83;;
3523;SDS011;1776;53.330;11.498;2024-03-08T05:52:42;30.53;;;13.60;;
3523;SDS011;1776;53.330;11.498;2024-03-08T05:55:08;22.23;;;11.80;;
3523;SDS011;1776;53.330;11.498;2024-03-08T05:57:34;23.57;;;13.00;;
3523;SDS011;1776;53.330;11.498;2024-03-08T06:00:03;22.43;;;12.50;;
3523;SDS011;1776;53.330;11.498;2024-03-08T06:02:28;21.87;;;12.60;;
3523;SDS011;1776;53.330;11.498;2024-03-08T06:04:54;20.77;;;12.40;;
3523;SDS011;1776;53.330;11.498;2024-03-08T06:07:19;22.03;;;13.13;;
3523;SDS011;1776;53.330;11.498;2024-03-08T06:09:45;26.80;;;14.20;;
3523;SDS011;1776;53.330;11.498;2024-03-08T06:12:11;25.07;;;12.07;;
3523;SDS011;1776;53.330;11.498;2024-03-08T06:14:37;24.23;;;12.77;;
3523;SDS011;1776;53.330;11.498;2024-03-08T06:17:02;24.20;;;12.53;;
3523;SDS011;1776;53.330;11.498;2024-03-08T06:19:30;23.77;;;12.03;;
3523;SDS011;1776;53.330;11.498;2024-03-08T06:21:55;23.77;;;11.80;;
3523;SDS011;1776;53.330;11.498;2024-03-08T06:24:20;24.73;;;12.57;;
3523;SDS011;1776;53.330;11.498;2024-03-08T06:26:46;21.77;;;12.73;;
3523;SDS011;1776;53.330;11.498;2024-03-08T06:29:11;20.77;;;11.20;;
3523;SDS011;1776;53.330;11.498;2024-03-08T06:31:37;22.70;;;12.67;;
3523;SDS011;1776;53.330;11.498;2024-03-08T06:34:04;28.37;;;13.70;;
3523;SDS011;1776;53.330;11.498;2024-03-08T06:36:32;22.90;;;11.80;;
3523;SDS011;1776;53.330;11.498;2024-03-08T06:38:57;24.00;;;11.67;;
3523;SDS011;1776;53.330;11.498;2024-03-08T06:41:23;23.57;;;12.60;;
3523;SDS011;1776;53.330;11.498;2024-03-08T06:43:48;17.67;;;11.00;;
3523;SDS011;1776;53.330;11.498;2024-03-08T06:46:16;20.70;;;11.60;;
3523;SDS011;1776;53.330;11.498;2024-03-08T06:48:42;20.53;;;11.90;;
3523;SDS011;1776;53.330;11.498;2024-03-08T06:51:08;25.73;;;11.83;;
3523;SDS011;1776;53.330;11.498;2024-03-08T06:53:33;20.37;;;10.47;;
3523;SDS011;1776;53.330;11.498;2024-03-08T06:56:00;22.00;;;13.90;;
3523;SDS011;1776;53.330;11.498;2024-03-08T06:58:26;25.93;;;13.03;;
3523;SDS011;1776;53.330;11.498;2024-03-08T07:00:51;24.03;;;12.73;;
3523;SDS011;1776;53.330;11.498;2024-03-08T07:03:20;22.47;;;13.03;;
3523;SDS011;1776;53.330;11.498;2024-03-08T07:05:47;25.43;;;12.33;;
3523;SDS011;1776;53.330;11.498;2024-03-08T07:08:12;24.87;;;12.50;;
3523;SDS011;1776;53.330;11.498;2024-03-08T07:10:39;22.43;;;12.00;;
3523;SDS011;1776;53.330;11.498;2024-03-08T07:13:06;21.40;;;13.23;;
3523;SDS011;1776;53.330;11.498;2024-03-08T07:15:32;29.43;;;13.73;;
3523;SDS011;1776;53.330;11.498;2024-03-08T07:17:57;22.37;;;12.60;;
3523;SDS011;1776;53.330;11.498;2024-03-08T07:20:24;27.73;;;13.00;;
3523;SDS011;1776;53.330;11.498;2024-03-08T07:22:50;23.20;;;12.63;;
3523;SDS011;1776;53.330;11.498;2024-03-08T07:25:18;20.43;;;11.50;;
3523;SDS011;1776;53.330;11.498;2024-03-08T07:27:53;24.20;;;13.10;;
3523;SDS011;1776;53.330;11.498;2024-03-08T07:30:24;29.50;;;13.50;;
3523;SDS011;1776;53.330;11.498;2024-03-08T07:33:08;26.43;;;12.27;;
3523;SDS011;1776;53.330;11.498;2024-03-08T07:35:36;29.67;;;12.47;;
3523;SDS011;1776;53.330;11.498;2024-03-08T07:38:06;22.40;;;12.80;;
3523;SDS011;1776;53.330;11.498;2024-03-08T07:40:36;24.87;;;13.00;;
3523;SDS011;1776;53.330;11.498;2024-03-08T07:43:11;24.50;;;12.30;;
3523;SDS011;1776;53.330;11.498;2024-03-08T07:45:39;24.10;;;12.70;;
3523;SDS011;1776;53.330;11.498;2024-03-08T07:48:05;21.07;;;12.77;;
3523;SDS011;1776;53.330;11.498;2024-03-08T07:50:34;23.47;;;13.13;;
3523;SDS011;1776;53.330;11.498;2024-03-08T07:53:08;24.77;;;12.73;;
3523;SDS011;1776;53.330;11.498;2024-03-08T07:55:35;21.07;;;13.20;;
3523;SDS011;1776;53.330;11.498;2024-03-08T07:58:01;29.80;;;14.97;;
3523;SDS011;1776;53.330;11.498;2024-03-08T08:00:27;23.70;;;13.70;;
3523;SDS011;1776;53.330;11.498;2024-03-08T08:02:53;23.37;;;12.60;;
3523;SDS011;1776;53.330;11.498;2024-03-08T08:05:19;18.30;;;11.80;;
3523;SDS011;1776;53.330;11.498;2024-03-08T08:07:44;26.27;;;12.57;;
3523;SDS011;1776;53.330;11.498;2024-03-08T08:10:11;21.50;;;12.57;;
3523;SDS011;1776;53.330;11.498;2024-03-08T08:12:46;24.50;;;15.03;;
3523;SDS011;1776;53.330;11.498;2024-03-08T08:15:12;24.67;;;15.93;;
3523;SDS011;1776;53.330;11.498;2024-03-08T08:17:38;29.20;;;18.30;;
3523;SDS011;1776;53.330;11.498;2024-03-08T08:20:03;28.50;;;17.03;;
3523;SDS011;1776;53.330;11.498;2024-03-08T08:22:30;27.77;;;16.50;;
3523;SDS011;1776;53.330;11.498;2024-03-08T08:24:55;26.67;;;15.80;;
3523;SDS011;1776;53.330;11.498;2024-03-08T08:27:21;32.17;;;18.20;;
3523;SDS011;1776;53.330;11.498;2024-03-08T08:29:46;32.10;;;17.07;;
3523;SDS011;1776;53.330;11.498;2024-03-08T08:32:11;29.10;;;19.00;;
3523;SDS011;1776;53.330;11.498;2024-03-08T08:34:37;32.67;;;15.77;;
3523;SDS011;1776;53.330;11.498;2024-03-08T08:37:02;27.27;;;15.87;;
3523;SDS011;1776;53.330;11.498;2024-03-08T08:39:27;29.27;;;16.43;;
3523;SDS011;1776;53.330;11.498;2024-03-08T08:41:52;31.20;;;17.37;;
3523;SDS011;1776;53.330;11.498;2024-03-08T08:44:18;29.70;;;19.50;;
3523;SDS011;1776;53.330;11.498;2024-03-08T08:46:43;34.13;;;18.00;;
3523;SDS011;1776;53.330;11.498;2024-03-08T08:49:08;29.13;;;16.80;;
3523;SDS011;1776;53.330;11.498;2024-03-08T08:51:39;28.97;;;17.97;;
3523;SDS011;1776;53.330;11.498;2024-03-08T08:54:05;30.13;;;16.37;;
3523;SDS011;1776;53.330;11.498;2024-03-08T08:56:31;27.53;;;17.03;;
3523;SDS011;1776;53.330;11.498;2024-03-08T08:58:56;32.63;;;18.40;;
3523;SDS011;1776;53.330;11.498;2024-03-08T09:01:22;30.87;;;16.60;;
3523;SDS011;1776;53.330;11.498;2024-03-08T09:03:48;28.53;;;16.67;;
3523;SDS011;1776;53.330;11.498;2024-03-08T09:06:15;24.97;;;16.17;;
3523;SDS011;1776;53.330;11.498;2024-03-08T09:08:41;27.77;;;16.40;;
3523;SDS011;1776;53.330;11.498;2024-03-08T09:11:06;25.50;;;14.53;;
3523;SDS011;1776;53.330;11.498;2024-03-08T09:13:32;27.30;;;16.67;;
3523;SDS011;1776;53.330;11.498;2024-03-08T09:16:01;26.67;;;16.77;;
3523;SDS011;1776;53.330;11.498;2024-03-08T09:18:27;25.40;;;16.83;;
3523;SDS011;1776;53.330;11.498;2024-03-08T09:20:53;26.90;;;16.63;;
3523;SDS011;1776;53.330;11.498;2024-03-08T09:23:21;33.87;;;17.83;;
3523;SDS011;1776;53.330;11.498;2024-03-08T09:25:46;27.73;;;15.53;;
3523;SDS011;1776;53.330;11.498;2024-03-08T09:28:12;23.57;;;16.33;;
3523;SDS011;1776;53.330;11.498;2024-03-08T09:30:38;30.47;;;17.33;;
3523;SDS011;1776;53.330;11.498;2024-03-08T09:33:04;26.20;;;17.33;;
3523;SDS011;1776;53.330;11.498;2024-03-08T09:35:32;25.47;;;16.97;;
3523;SDS011;1776;53.330;11.498;2024-03-08T09:37:58;28.30;;;18.50;;
3523;SDS011;1776;53.330;11.498;2024-03-08T09:40:24;28.80;;;18.10;;
3523;SDS011;1776;53.330;11.498;2024-03-08T09:42:50;28.93;;;16.90;;
3523;SDS011;1776;53.330;11.498;2024-03-08T09:45:17;26.33;;;16.43;;
3523;SDS011;1776;53.330;11.498;2024-03-08T09:47:46;28.67;;;16.70;;
3523;SDS011;1776;53.330;11.498;2024-03-08T09:50:13;24.80;;;14.83;;
3523;SDS011;1776;53.330;11.498;2024-03-08T09:52:39;26.17;;;17.57;;
3523;SDS011;1776;53.330;11.498;2024-03-08T09:55:05;31.57;;;16.33;;
3523;SDS011;1776;53.330;11.498;2024-03-08T09:57:35;24.83;;;15.67;;
3523;SDS011;1776;53.330;11.498;2024-03-08T10:00:01;30.27;;;17.50;;
3523;SDS011;1776;53.330;11.498;2024-03-08T10:02:31;28.40;;;18.53;;
3523;SDS011;1776;53.330;11.498;2024-03-08T10:04:59;25.57;;;17.20;;
3523;SDS011;1776;53.330;11.498;2024-03-08T10:07:28;25.40;;;16.43;;
3523;SDS011;1776;53.330;11.498;2024-03-08T10:09:53;26.13;;;16.53;;
3523;SDS011;1776;53.330;11.498;2024-03-08T10:12:19;23.63;;;15.47;;
3523;SDS011;1776;53.330;11.498;2024-03-08T10:14:45;28.00;;;14.83;;
3523;SDS011;1776;53.330;11.498;2024-03-08T10:17:11;25.40;;;15.97;;
3523;SDS011;1776;53.330;11.498;2024-03-08T10:19:36;26.43;;;15.27;;
3523;SDS011;1776;53.330;11.498;2024-03-08T10:22:02;25.33;;;14.80;;
3523;SDS011;1776;53.330;11.498;2024-03-08T10:24:29;24.70;;;15.90;;
3523;SDS011;1776;53.330;11.498;2024-03-08T10:27:03;29.27;;;18.20;;
3523;SDS011;1776;53.330;11.498;2024-03-08T10:29:30;27.70;;;16.90;;
3523;SDS011;1776;53.330;11.498;2024-03-08T10:31:56;23.03;;;15.93;;
3523;SDS011;1776;53.330;11.498;2024-03-08T10:34:22;26.27;;;16.37;;
3523;SDS011;1776;53.330;11.498;2024-03-08T10:36:49;25.53;;;17.90;;
3523;SDS011;1776;53.330;11.498;2024-03-08T10:39:21;25.13;;;16.77;;
3523;SDS011;1776;53.330;11.498;2024-03-08T10:41:50;24.77;;;16.50;;
3523;SDS011;1776;53.330;11.498;2024-03-08T10:49:30;26.10;;;17.40;;
3523;SDS011;1776;53.330;11.498;2024-03-08T10:52:01;24.70;;;16.47;;
3523;SDS011;1776;53.330;11.498;2024-03-08T10:54:30;26.93;;;16.20;;
3523;SDS011;1776;53.330;11.498;2024-03-08T10:56:57;30.10;;;17.93;;
3523;SDS011;1776;53.330;11.498;2024-03-08T10:59:23;29.37;;;15.80;;
3523;SDS011;1776;53.330;11.498;2024-03-08T11:01:52;26.23;;;16.30;;
3523;SDS011;1776;53.330;11.498;2024-03-08T11:04:17;28.43;;;15.67;;
3523;SDS011;1776;53.330;11.498;2024-03-08T11:06:47;33.63;;;17.07;;
3523;SDS011;1776;53.330;11.498;2024-03-08T11:15:00;22.33;;;13.63;;
3523;SDS011;1776;53.330;11.498;2024-03-08T11:19:57;22.23;;;14.80;;
3523;SDS011;1776;53.330;11.498;2024-03-08T11:22:32;25.20;;;16.87;;
3523;SDS011;1776;53.330;11.498;2024-03-08T11:24:58;22.17;;;15.50;;
3523;SDS011;1776;53.330;11.498;2024-03-08T11:27:29;23.40;;;15.23;;
3523;SDS011;1776;53.330;11.498;2024-03-08T11:30:02;21.67;;;13.40;;
3523;SDS011;1776;53.330;11.498;2024-03-08T11:32:43;24.77;;;15.10;;
3523;SDS011;1776;53.330;11.498;2024-03-08T11:35:19;24.23;;;14.40;;
3523;SDS011;1776;53.330;11.498;2024-03-08T11:37:46;25.30;;;15.13;;
3523;SDS011;1776;53.330;11.498;2024-03-08T11:40:12;24.63;;;15.70;;
3523;SDS011;1776;53.330;11.498;2024-03-08T11:42:40;27.17;;;15.13;;
3523;SDS011;1776;53.330;11.498;2024-03-08T11:45:11;28.30;;;15.80;;
3523;SDS011;1776;53.330;11.498;2024-03-08T11:47:37;24.13;;;15.37;;
3523;SDS011;1776;53.330;11.498;2024-03-08T11:50:05;25.70;;;16.70;;
3523;SDS011;1776;53.330;11.498;2024-03-08T11:52:35;22.40;;;14.90;;
3523;SDS011;1776;53.330;11.498;2024-03-08T11:55:01;24.50;;;16.43;;
3523;SDS011;1776;53.330;11.498;2024-03-08T11:57:26;20.97;;;15.67;;
3523;SDS011;1776;53.330;11.498;2024-03-08T11:59:53;24.83;;;15.37;;
3523;SDS011;1776;53.330;11.498;2024-03-08T12:02:21;26.17;;;16.47;;
3523;SDS011;1776;53.330;11.498;2024-03-08T12:04:48;22.53;;;14.17;;
3523;SDS011;1776;53.330;11.498;2024-03-08T12:07:21;20.20;;;14.23;;
3523;SDS011;1776;53.330;11.498;2024-03-08T12:10:13;18.80;;;12.80;;
3523;SDS011;1776;53.330;11.498;2024-03-08T12:12:47;21.43;;;14.70;;
3523;SDS011;1776;53.330;11.498;2024-03-08T12:15:24;20.50;;;13.77;;
3523;SDS011;1776;53.330;11.498;2024-03-08T12:17:51;25.53;;;15.27;;
3523;SDS011;1776;53.330;11.498;2024-03-08T12:20:18;24.60;;;13.00;;
3523;SDS011;1776;53.330;11.498;2024-03-08T12:22:48;22.07;;;14.10;;
3523;SDS011;1776;53.330;11.498;2024-03-08T12:25:17;21.83;;;15.30;;
3523;SDS011;1776;53.330;11.498;2024-03-08T12:27:43;24.93;;;14.67;;
3523;SDS011;1776;53.330;11.498;2024-03-08T12:30:15;17.87;;;12.87;;
3523;SDS011;1776;53.330;11.498;2024-03-08T12:32:46;20.83;;;14.00;;
3523;SDS011;1776;53.330;11.498;2024-03-08T12:35:13;22.80;;;14.47;;
3523;SDS011;1776;53.330;11.498;2024-03-08T12:37:39;26.33;;;15.20;;
3523;SDS011;1776;53.330;11.498;2024-03-08T12:40:06;19.80;;;14.87;;
3523;SDS011;1776;53.330;11.498;2024-03-08T12:42:33;22.80;;;14.60;;
3523;SDS011;1776;53.330;11.498;2024-03-08T12:44:59;19.90;;;13.97;;
3523;SDS011;1776;53.330;11.498;2024-03-08T12:47:24;17.10;;;12.97;;
3523;SDS011;1776;53.330;11.498;2024-03-08T12:49:54;18.40;;;12.07;;
3523;SDS011;1776;53.330;11.498;2024-03-08T12:52:20;22.43;;;14.23;;
3523;SDS011;1776;53.330;11.498;2024-03-08T12:54:45;21.03;;;13.13;;
3523;SDS011;1776;53.330;11.498;2024-03-08T12:57:12;19.87;;;13.93;;
3523;SDS011;1776;53.330;11.498;2024-03-08T12:59:37;19.60;;;12.90;;
3523;SDS011;1776;53.330;11.498;2024-03-08T13:02:03;22.37;;;14.00;;
3523;SDS011;1776;53.330;11.498;2024-03-08T13:04:28;20.40;;;13.53;;
3523;SDS011;1776;53.330;11.498;2024-03-08T13:06:56;15.53;;;12.60;;
3523;SDS011;1776;53.330;11.498;2024-03-08T13:09:21;18.07;;;12.43;;
3523;SDS011;1776;53.330;11.498;2024-03-08T13:11:47;17.20;;;12.73;;
3523;SDS011;1776;53.330;11.498;2024-03-08T13:14:12;14.37;;;11.60;;
3523;SDS011;1776;53.330;11.498;2024-03-08T13:16:38;16.87;;;12.20;;
3523;SDS011;1776;53.330;11.498;2024-03-08T13:19:03;16.57;;;11.73;;
3523;SDS011;1776;53.330;11.498;2024-03-08T13:21:29;18.10;;;11.87;;
3523;SDS011;1776;53.330;11.498;2024-03-08T13:23:55;20.00;;;13.10;;
3523;SDS011;1776;53.330;11.498;2024-03-08T13:26:20;21.43;;;13.13;;
3523;SDS011;1776;53.330;11.498;2024-03-08T13:28:46;17.30;;;12.00;;
3523;SDS011;1776;53.330;11.498;2024-03-08T13:31:13;20.07;;;11.57;;
3523;SDS011;1776;53.330;11.498;2024-03-08T13:33:39;19.00;;;12.27;;
3523;SDS011;1776;53.330;11.498;2024-03-08T13:36:07;20.43;;;11.73;;
3523;SDS011;1776;53.330;11.498;2024-03-08T13:38:40;18.40;;;11.70;;
3523;SDS011;1776;53.330;11.498;2024-03-08T13:41:08;16.00;;;11.73;;
3523;SDS011;1776;53.330;11.498;2024-03-08T13:43:34;17.67;;;12.50;;
3523;SDS011;1776;53.330;11.498;2024-03-08T13:46:01;18.67;;;13.20;;
3523;SDS011;1776;53.330;11.498;2024-03-08T13:48:27;20.70;;;14.07;;
3523;SDS011;1776;53.330;11.498;2024-03-08T13:50:52;20.63;;;12.60;;
3523;SDS011;1776;53.330;11.498;2024-03-08T13:53:17;19.13;;;13.70;;
3523;SDS011;1776;53.330;11.498;2024-03-08T13:55:43;24.37;;;14.73;;
3523;SDS011;1776;53.330;11.498;2024-03-08T13:58:08;21.57;;;14.37;;
3523;SDS011;1776;53.330;11.498;2024-03-08T14:00:35;18.70;;;12.37;;
3523;SDS011;1776;53.330;11.498;2024-03-08T14:03:01;16.87;;;12.63;;
3523;SDS011;1776;53.330;11.498;2024-03-08T14:05:30;19.17;;;13.37;;
3523;SDS011;1776;53.330;11.498;2024-03-08T14:07:59;26.43;;;15.50;;
3523;SDS011;1776;53.330;11.498;2024-03-08T14:10:25;18.53;;;13.77;;
3523;SDS011;1776;53.330;11.498;2024-03-08T14:12:52;14.57;;;11.60;;
3523;SDS011;1776;53.330;11.498;2024-03-08T14:15:17;18.33;;;12.20;;
3523;SDS011;1776;53.330;11.498;2024-03-08T14:17:42;16.80;;;10.70;;
3523;SDS011;1776;53.330;11.498;2024-03-08T14:20:10;18.23;;;12.83;;
3523;SDS011;1776;53.330;11.498;2024-03-08T14:22:37;15.67;;;11.47;;
3523;SDS011;1776;53.330;11.498;2024-03-08T14:25:03;19.13;;;13.03;;
3523;SDS011;1776;53.330;11.498;2024-03-08T14:27:30;16.50;;;11.20;;
3523;SDS011;1776;53.330;11.498;2024-03-08T14:29:55;17.00;;;12.40;;
3523;SDS011;1776;53.330;11.498;2024-03-08T14:32:21;18.60;;;12.10;;
3523;SDS011;1776;53.330;11.498;2024-03-08T14:34:47;17.00;;;12.73;;
3523;SDS011;1776;53.330;11.498;2024-03-08T14:37:14;22.63;;;14.40;;
3523;SDS011;1776;53.330;11.498;2024-03-08T14:39:39;20.60;;;12.50;;
3523;SDS011;1776;53.330;11.498;2024-03-08T14:42:04;19.67;;;13.00;;
3523;SDS011;1776;53.330;11.498;2024-03-08T14:44:33;19.63;;;12.40;;
3523;SDS011;1776;53.330;11.498;2024-03-08T14:46:58;18.10;;;11.03;;
3523;SDS011;1776;53.330;11.498;2024-03-08T14:49:24;17.27;;;12.93;;